sensor_id;sensor_type;location;lat;lon;timestamp;P1;durP1;ratioP1;P2;durP2;ratioP2
8462;SDS011;4268;52.506;13.462;2023-07-20T00:01:30;16.00;;;15.20;;
8462;SDS011;4268;52.506;13.462;2023-07-20T00:03:55;16.23;;;15.47;;
8462;SDS011;4268;52.506;13.462;2023-07-20T00:06:22;15.90;;;15.00;;
8462;SDS011;4268;52.506;13.462;2023-07-20T00:08:48;16.53;;;15.63;;
8462;SDS011;4268;52.506;13.462;2023-07-20T00:11:14;14.77;;;13.97;;
8462;SDS011;4268;52.506;13.462;2023-07-20T00:13:40;14.37;;;13.67;;
8462;SDS011;4268;52.506;13.462;2023-07-20T00:16:05;14.40;;;13.70;;
8462;SDS011;4268;52.506;13.462;2023-07-20T00:18:31;13.57;;;12.87;;
8462;SDS011;4268;52.506;13.462;2023-07-20T00:20:56;13.20;;;12.60;;
8462;SDS011;4268;52.506;13.462;2023-07-20T00:23:22;12.00;;;11.40;;
8462;SDS011;4268;52.506;13.462;2023-07-20T00:25:48;11.90;;;11.30;;
8462;SDS011;4268;52.506;13.462;2023-07-20T00:28:14;13.83;;;13.10;;
8462;SDS011;4268;52.506;13.462;2023-07-20T00:30:39;11.57;;;10.93;;
8462;SDS011;4268;52.506;13.462;2023-07-20T00:33:06;11.13;;;10.53;;
8462;SDS011;4268;52.506;13.462;2023-07-20T00:35:35;11.40;;;10.80;;
8462;SDS011;4268;52.506;13.462;2023-07-20T00:38:00;10.50;;;9.97;;
8462;SDS011;4268;52.506;13.462;2023-07-20T00:40:26;9.67;;;8.97;;
8462;SDS011;4268;52.506;13.462;2023-07-20T00:42:51;10.50;;;9.90;;
8462;SDS011;4268;52.506;13.462;2023-07-20T00:45:17;10.57;;;10.07;;
8462;SDS011;4268;52.506;13.462;2023-07-20T00:47:42;10.63;;;10.13;;
8462;SDS011;4268;52.506;13.462;2023-07-20T00:50:09;9.50;;;9.00;;
8462;SDS011;4268;52.506;13.462;2023-07-20T00:52:35;9.87;;;9.27;;
8462;SDS011;4268;52.506;13.462;2023-07-20T00:55:04;10.27;;;9.73;;
8462;SDS011;4268;52.506;13.462;2023-07-20T00:57:30;10.33;;;9.63;;
8462;SDS011;4268;52.506;13.462;2023-07-20T00:59:55;10.30;;;9.70;;
8462;SDS011;4268;52.506;13.462;2023-07-20T01:02:21;10.63;;;9.97;;
8462;SDS011;4268;52.506;13.462;2023-07-20T01:04:46;9.33;;;8.83;;
8462;SDS011;4268;52.506;13.462;2023-07-20T01:10:06;8.97;;;8.47;;
8462;SDS011;4268;52.506;13.462;2023-07-20T01:15:06;9.00;;;8.47;;
8462;SDS011;4268;52.506;13.462;2023-07-20T01:17:33;9.17;;;8.57;;
8462;SDS011;4268;52.506;13.462;2023-07-20T01:19:59;8.73;;;8.13;;
8462;SDS011;4268;52.506;13.462;2023-07-20T01:22:50;10.13;;;9.53;;
8462;SDS011;4268;52.506;13.462;2023-07-20T01:31:36;6.33;;;6.03;;
8462;SDS011;4268;52.506;13.462;2023-07-20T01:34:03;6.37;;;6.00;;
8462;SDS011;4268;52.506;13.462;2023-07-20T01:36:37;6.53;;;6.03;;
8462;SDS011;4268;52.506;13.462;2023-07-20T01:39:03;7.20;;;6.60;;
8462;SDS011;4268;52.506;13.462;2023-07-20T01:41:29;7.77;;;7.33;;
8462;SDS011;4268;52.506;13.462;2023-07-20T01:43:58;8.47;;;7.90;;
8462;SDS011;4268;52.506;13.462;2023-07-20T01:46:27;8.07;;;7.57;;
8462;SDS011;4268;52.506;13.462;2023-07-20T01:48:52;7.67;;;7.27;;
8462;SDS011;4268;52.506;13.462;2023-07-20T01:51:19;7.37;;;6.97;;
8462;SDS011;4268;52.506;13.462;2023-07-20T01:53:44;7.73;;;7.30;;
8462;SDS011;4268;52.506;13.462;2023-07-20T01:56:10;7.67;;;7.17;;
8462;SDS011;4268;52.506;13.462;2023-07-20T01:58:37;7.97;;;7.57;;
8462;SDS011;4268;52.506;13.462;2023-07-20T02:01:03;8.30;;;7.80;;
8462;SDS011;4268;52.506;13.462;2023-07-20T02:03:28;8.43;;;7.93;;
8462;SDS011;4268;52.506;13.462;2023-07-20T02:05:54;8.53;;;8.10;;
8462;SDS011;4268;52.506;13.462;2023-07-20T02:08:20;8.00;;;7.60;;
8462;SDS011;4268;52.506;13.462;2023-07-20T02:10:48;8.07;;;7.60;;
8462;SDS011;4268;52.506;13.462;2023-07-20T02:13:14;8.27;;;7.77;;
8462;SDS011;4268;52.506;13.462;2023-07-20T02:15:41;7.70;;;7.13;;
8462;SDS011;4268;52.506;13.462;2023-07-20T02:18:07;7.53;;;7.10;;
8462;SDS011;4268;52.506;13.462;2023-07-20T02:20:33;8.07;;;7.47;;
8462;SDS011;4268;52.506;13.462;2023-07-20T02:22:59;10.37;;;9.83;;
8462;SDS011;4268;52.506;13.462;2023-07-20T02:25:24;6.77;;;6.37;;
8462;SDS011;4268;52.506;13.462;2023-07-20T02:27:50;8.00;;;7.40;;
8462;SDS011;4268;52.506;13.462;2023-07-20T02:30:15;6.13;;;5.83;;
8462;SDS011;4268;52.506;13.462;2023-07-20T02:32:41;6.40;;;6.10;;
8462;SDS011;4268;52.506;13.462;2023-07-20T02:35:10;6.10;;;5.80;;
8462;SDS011;4268;52.506;13.462;2023-07-20T02:37:36;6.50;;;6.10;;
8462;SDS011;4268;52.506;13.462;2023-07-20T02:40:02;6.53;;;6.13;;
8462;SDS011;4268;52.506;13.462;2023-07-20T02:42:29;6.87;;;6.37;;
8462;SDS011;4268;52.506;13.462;2023-07-20T02:44:54;6.97;;;6.50;;
8462;SDS011;4268;52.506;13.462;2023-07-20T02:47:20;7.20;;;6.80;;
8462;SDS011;4268;52.506;13.462;2023-07-20T02:49:45;7.97;;;7.50;;
8462;SDS011;4268;52.506;13.462;2023-07-20T02:52:11;7.87;;;7.37;;
8462;SDS011;4268;52.506;13.462;2023-07-20T02:54:37;9.13;;;8.53;;
8462;SDS011;4268;52.506;13.462;2023-07-20T02:57:02;9.23;;;8.63;;
8462;SDS011;4268;52.506;13.462;2023-07-20T02:59:28;11.20;;;10.40;;
8462;SDS011;4268;52.506;13.462;2023-07-20T03:01:54;10.07;;;9.47;;
8462;SDS011;4268;52.506;13.462;2023-07-20T03:04:20;11.40;;;10.70;;
8462;SDS011;4268;52.506;13.462;2023-07-20T03:06:46;12.17;;;11.50;;
8462;SDS011;4268;52.506;13.462;2023-07-20T03:09:12;13.53;;;12.73;;
8462;SDS011;4268;52.506;13.462;2023-07-20T03:11:37;12.87;;;12.07;;
8462;SDS011;4268;52.506;13.462;2023-07-20T03:14:03;12.47;;;11.77;;
8462;SDS011;4268;52.506;13.462;2023-07-20T03:16:28;12.00;;;11.20;;
8462;SDS011;4268;52.506;13.462;2023-07-20T03:18:57;13.10;;;12.30;;
8462;SDS011;4268;52.506;13.462;2023-07-20T03:21:23;14.93;;;14.07;;
8462;SDS011;4268;52.506;13.462;2023-07-20T03:23:48;15.83;;;14.83;;
8462;SDS011;4268;52.506;13.462;2023-07-20T03:26:14;16.40;;;15.53;;
8462;SDS011;4268;52.506;13.462;2023-07-20T03:28:40;17.27;;;16.27;;
8462;SDS011;4268;52.506;13.462;2023-07-20T03:31:06;16.03;;;15.03;;
8462;SDS011;4268;52.506;13.462;2023-07-20T03:33:31;16.10;;;15.10;;
8462;SDS011;4268;52.506;13.462;2023-07-20T03:35:57;16.43;;;15.53;;
8462;SDS011;4268;52.506;13.462;2023-07-20T03:38:24;16.03;;;15.13;;
8462;SDS011;4268;52.506;13.462;2023-07-20T03:40:54;17.70;;;16.63;;
8462;SDS011;4268;52.506;13.462;2023-07-20T03:43:24;17.67;;;16.67;;
8462;SDS011;4268;52.506;13.462;2023-07-20T03:45:51;16.47;;;15.43;;
8462;SDS011;4268;52.506;13.462;2023-07-20T03:48:17;15.73;;;14.83;;
8462;SDS011;4268;52.506;13.462;2023-07-20T03:50:47;14.03;;;13.23;;
8462;SDS011;4268;52.506;13.462;2023-07-20T03:53:14;11.90;;;11.20;;
8462;SDS011;4268;52.506;13.462;2023-07-20T03:55:49;11.67;;;10.97;;
8462;SDS011;4268;52.506;13.462;2023-07-20T03:58:16;12.50;;;11.70;;
8462;SDS011;4268;52.506;13.462;2023-07-20T04:00:44;11.77;;;11.07;;
8462;SDS011;4268;52.506;13.462;2023-07-20T04:03:10;12.40;;;11.60;;
8462;SDS011;4268;52.506;13.462;2023-07-20T04:05:36;11.73;;;11.00;;
8462;SDS011;4268;52.506;13.462;2023-07-20T04:08:01;11.03;;;10.43;;
8462;SDS011;4268;52.506;13.462;2023-07-20T04:10:27;11.90;;;11.20;;
8462;SDS011;4268;52.506;13.462;2023-07-20T04:12:52;10.47;;;9.87;;
8462;SDS011;4268;52.506;13.462;2023-07-20T04:15:18;9.10;;;8.50;;
8462;SDS011;4268;52.506;13.462;2023-07-20T04:17:44;9.23;;;8.63;;
8462;SDS011;4268;52.506;13.462;2023-07-20T04:20:10;10.10;;;9.50;;
8462;SDS011;4268;52.506;13.462;2023-07-20T04:22:35;11.07;;;10.20;;
8462;SDS011;4268;52.506;13.462;2023-07-20T04:25:01;12.93;;;12.17;;
8462;SDS011;4268;52.506;13.462;2023-07-20T04:27:27;10.00;;;9.40;;
8462;SDS011;4268;52.506;13.462;2023-07-20T04:29:53;10.60;;;10.00;;
8462;SDS011;4268;52.506;13.462;2023-07-20T04:32:18;9.73;;;9.10;;
8462;SDS011;4268;52.506;13.462;2023-07-20T04:34:44;10.57;;;9.87;;
8462;SDS011;4268;52.506;13.462;2023-07-20T04:37:09;9.77;;;9.17;;
8462;SDS011;4268;52.506;13.462;2023-07-20T04:39:35;8.93;;;8.43;;
8462;SDS011;4268;52.506;13.462;2023-07-20T04:42:00;12.10;;;11.30;;
8462;SDS011;4268;52.506;13.462;2023-07-20T04:44:25;10.50;;;9.90;;
8462;SDS011;4268;52.506;13.462;2023-07-20T04:46:51;7.87;;;7.37;;
8462;SDS011;4268;52.506;13.462;2023-07-20T04:49:17;8.00;;;7.50;;
8462;SDS011;4268;52.506;13.462;2023-07-20T04:51:42;8.87;;;8.27;;
8462;SDS011;4268;52.506;13.462;2023-07-20T04:54:08;8.63;;;8.10;;
8462;SDS011;4268;52.506;13.462;2023-07-20T04:56:33;7.80;;;7.30;;
8462;SDS011;4268;52.506;13.462;2023-07-20T04:58:59;7.57;;;7.10;;
8462;SDS011;4268;52.506;13.462;2023-07-20T05:01:24;7.60;;;7.10;;
8462;SDS011;4268;52.506;13.462;2023-07-20T05:03:51;7.37;;;6.87;;
8462;SDS011;4268;52.506;13.462;2023-07-20T05:06:17;7.30;;;6.90;;
8462;SDS011;4268;52.506;13.462;2023-07-20T05:08:43;6.63;;;6.20;;
8462;SDS011;4268;52.506;13.462;2023-07-20T05:11:08;8.03;;;7.53;;
8462;SDS011;4268;52.506;13.462;2023-07-20T05:13:34;7.50;;;7.00;;
8462;SDS011;4268;52.506;13.462;2023-07-20T05:15:59;7.93;;;7.43;;
8462;SDS011;4268;52.506;13.462;2023-07-20T05:18:25;7.50;;;7.00;;
8462;SDS011;4268;52.506;13.462;2023-07-20T05:20:50;7.23;;;6.83;;
8462;SDS011;4268;52.506;13.462;2023-07-20T05:23:19;7.00;;;6.60;;
8462;SDS011;4268;52.506;13.462;2023-07-20T05:25:45;6.60;;;6.20;;
8462;SDS011;4268;52.506;13.462;2023-07-20T05:28:10;6.20;;;5.60;;
8462;SDS011;4268;52.506;13.462;2023-07-20T05:30:36;5.80;;;5.40;;
8462;SDS011;4268;52.506;13.462;2023-07-20T05:33:02;5.80;;;5.40;;
8462;SDS011;4268;52.506;13.462;2023-07-20T05:35:27;5.47;;;5.07;;
8462;SDS011;4268;52.506;13.462;2023-07-20T05:37:53;4.80;;;4.50;;
8462;SDS011;4268;52.506;13.462;2023-07-20T05:40:18;4.80;;;4.40;;
8462;SDS011;4268;52.506;13.462;2023-07-20T05:42:47;4.30;;;4.10;;
8462;SDS011;4268;52.506;13.462;2023-07-20T05:45:16;4.67;;;4.37;;
8462;SDS011;4268;52.506;13.462;2023-07-20T05:47:42;4.40;;;4.20;;
8462;SDS011;4268;52.506;13.462;2023-07-20T05:50:08;4.57;;;4.27;;
8462;SDS011;4268;52.506;13.462;2023-07-20T05:52:34;4.60;;;4.30;;
8462;SDS011;4268;52.506;13.462;2023-07-20T05:54:59;4.00;;;3.70;;
8462;SDS011;4268;52.506;13.462;2023-07-20T05:57:25;4.33;;;4.03;;
8462;SDS011;4268;52.506;13.462;2023-07-20T05:59:50;4.17;;;3.97;;
8462;SDS011;4268;52.506;13.462;2023-07-20T06:02:16;4.30;;;4.00;;
8462;SDS011;4268;52.506;13.462;2023-07-20T06:04:41;4.60;;;4.30;;
8462;SDS011;4268;52.506;13.462;2023-07-20T06:07:07;4.47;;;4.17;;
8462;SDS011;4268;52.506;13.462;2023-07-20T06:09:33;4.10;;;3.80;;
8462;SDS011;4268;52.506;13.462;2023-07-20T06:11:58;4.90;;;4.60;;
8462;SDS011;4268;52.506;13.462;2023-07-20T06:14:24;5.57;;;5.07;;
8462;SDS011;4268;52.506;13.462;2023-07-20T06:16:52;6.33;;;5.30;;
8462;SDS011;4268;52.506;13.462;2023-07-20T06:19:17;5.13;;;4.73;;
8462;SDS011;4268;52.506;13.462;2023-07-20T06:21:43;5.17;;;4.87;;
8462;SDS011;4268;52.506;13.462;2023-07-20T06:24:08;5.47;;;4.97;;
8462;SDS011;4268;52.506;13.462;2023-07-20T06:26:34;5.50;;;5.10;;
8462;SDS011;4268;52.506;13.462;2023-07-20T06:29:05;5.13;;;4.63;;
8462;SDS011;4268;52.506;13.462;2023-07-20T06:31:31;4.87;;;4.47;;
8462;SDS011;4268;52.506;13.462;2023-07-20T06:33:57;4.73;;;4.43;;
8462;SDS011;4268;52.506;13.462;2023-07-20T06:36:23;5.13;;;4.73;;
8462;SDS011;4268;52.506;13.462;2023-07-20T06:38:50;4.90;;;4.50;;
8462;SDS011;4268;52.506;13.462;2023-07-20T06:41:16;4.93;;;4.43;;
8462;SDS011;4268;52.506;13.462;2023-07-20T06:43:41;3.80;;;3.50;;
8462;SDS011;4268;52.506;13.462;2023-07-20T06:46:07;4.10;;;3.80;;
8462;SDS011;4268;52.506;13.462;2023-07-20T06:48:32;3.73;;;3.43;;
8462;SDS011;4268;52.506;13.462;2023-07-20T06:50:58;3.40;;;3.13;;
8462;SDS011;4268;52.506;13.462;2023-07-20T06:53:24;3.30;;;3.10;;
8462;SDS011;4268;52.506;13.462;2023-07-20T06:55:49;3.10;;;2.90;;
8462;SDS011;4268;52.506;13.462;2023-07-20T06:58:15;3.23;;;3.03;;
8462;SDS011;4268;52.506;13.462;2023-07-20T07:00:40;2.90;;;2.70;;
8462;SDS011;4268;52.506;13.462;2023-07-20T07:03:06;4.07;;;2.73;;
8462;SDS011;4268;52.506;13.462;2023-07-20T07:05:34;3.17;;;2.97;;
8462;SDS011;4268;52.506;13.462;2023-07-20T07:08:01;2.90;;;2.70;;
8462;SDS011;4268;52.506;13.462;2023-07-20T07:10:27;2.60;;;2.40;;
8462;SDS011;4268;52.506;13.462;2023-07-20T07:12:53;3.07;;;2.80;;
8462;SDS011;4268;52.506;13.462;2023-07-20T07:15:18;2.70;;;2.50;;
8462;SDS011;4268;52.506;13.462;2023-07-20T07:17:44;2.33;;;2.20;;
8462;SDS011;4268;52.506;13.462;2023-07-20T07:20:09;2.80;;;2.60;;
8462;SDS011;4268;52.506;13.462;2023-07-20T07:22:35;2.90;;;2.70;;
8462;SDS011;4268;52.506;13.462;2023-07-20T07:25:00;2.90;;;2.70;;
8462;SDS011;4268;52.506;13.462;2023-07-20T07:27:26;2.70;;;2.30;;
8462;SDS011;4268;52.506;13.462;2023-07-20T07:29:51;2.60;;;2.40;;
8462;SDS011;4268;52.506;13.462;2023-07-20T07:32:17;2.60;;;2.50;;
8462;SDS011;4268;52.506;13.462;2023-07-20T07:34:43;2.83;;;2.73;;
8462;SDS011;4268;52.506;13.462;2023-07-20T07:37:11;2.30;;;2.20;;
8462;SDS011;4268;52.506;13.462;2023-07-20T07:39:37;2.50;;;2.40;;
8462;SDS011;4268;52.506;13.462;2023-07-20T07:42:02;2.97;;;2.80;;
8462;SDS011;4268;52.506;13.462;2023-07-20T07:44:28;2.27;;;2.13;;
8462;SDS011;4268;52.506;13.462;2023-07-20T07:46:53;1.83;;;1.73;;
8462;SDS011;4268;52.506;13.462;2023-07-20T07:49:19;2.07;;;1.90;;
8462;SDS011;4268;52.506;13.462;2023-07-20T07:51:44;2.40;;;2.30;;
8462;SDS011;4268;52.506;13.462;2023-07-20T07:54:10;1.90;;;1.90;;
8462;SDS011;4268;52.506;13.462;2023-07-20T07:56:36;2.10;;;2.00;;
8462;SDS011;4268;52.506;13.462;2023-07-20T07:59:01;1.80;;;1.80;;
8462;SDS011;4268;52.506;13.462;2023-07-20T08:01:27;1.77;;;1.67;;
8462;SDS011;4268;52.506;13.462;2023-07-20T08:03:53;1.47;;;1.47;;
8462;SDS011;4268;52.506;13.462;2023-07-20T08:06:19;1.70;;;1.60;;
8462;SDS011;4268;52.506;13.462;2023-07-20T08:08:44;1.90;;;1.80;;
8462;SDS011;4268;52.506;13.462;2023-07-20T08:11:09;1.97;;;1.87;;
8462;SDS011;4268;52.506;13.462;2023-07-20T08:13:35;2.00;;;1.80;;
8462;SDS011;4268;52.506;13.462;2023-07-20T08:16:01;1.83;;;1.73;;
8462;SDS011;4268;52.506;13.462;2023-07-20T08:18:29;1.70;;;1.70;;
8462;SDS011;4268;52.506;13.462;2023-07-20T08:20:56;1.93;;;1.83;;
8462;SDS011;4268;52.506;13.462;2023-07-20T08:23:21;1.60;;;1.60;;
8462;SDS011;4268;52.506;13.462;2023-07-20T08:25:47;2.07;;;1.60;;
8462;SDS011;4268;52.506;13.462;2023-07-20T08:28:13;1.63;;;1.53;;
8462;SDS011;4268;52.506;13.462;2023-07-20T08:30:43;1.40;;;1.40;;
8462;SDS011;4268;52.506;13.462;2023-07-20T08:33:13;1.40;;;1.40;;
8462;SDS011;4268;52.506;13.462;2023-07-20T08:35:39;1.60;;;1.40;;
8462;SDS011;4268;52.506;13.462;2023-07-20T08:38:05;1.33;;;1.30;;
8462;SDS011;4268;52.506;13.462;2023-07-20T08:40:31;1.40;;;1.40;;
8462;SDS011;4268;52.506;13.462;2023-07-20T08:42:57;1.60;;;1.50;;
8462;SDS011;4268;52.506;13.462;2023-07-20T08:45:24;1.50;;;1.40;;
8462;SDS011;4268;52.506;13.462;2023-07-20T08:47:52;1.50;;;1.40;;
8462;SDS011;4268;52.506;13.462;2023-07-20T08:50:20;1.63;;;1.53;;
8462;SDS011;4268;52.506;13.462;2023-07-20T08:52:47;2.00;;;1.63;;
8462;SDS011;4268;52.506;13.462;2023-07-20T08:55:15;1.40;;;1.40;;
8462;SDS011;4268;52.506;13.462;2023-07-20T08:57:40;1.90;;;1.80;;
8462;SDS011;4268;52.506;13.462;2023-07-20T09:00:08;1.60;;;1.50;;
8462;SDS011;4268;52.506;13.462;2023-07-20T09:02:38;1.67;;;1.60;;
8462;SDS011;4268;52.506;13.462;2023-07-20T09:05:08;1.80;;;1.70;;
8462;SDS011;4268;52.506;13.462;2023-07-20T09:07:35;1.40;;;1.40;;
8462;SDS011;4268;52.506;13.462;2023-07-20T09:10:01;1.60;;;1.60;;
8462;SDS011;4268;52.506;13.462;2023-07-20T09:12:31;1.93;;;1.83;;
8462;SDS011;4268;52.506;13.462;2023-07-20T09:14:59;2.30;;;2.20;;
8462;SDS011;4268;52.506;13.462;2023-07-20T09:17:26;2.07;;;1.97;;
8462;SDS011;4268;52.506;13.462;2023-07-20T09:19:52;1.80;;;1.70;;
8462;SDS011;4268;52.506;13.462;2023-07-20T09:22:17;1.33;;;1.30;;
8462;SDS011;4268;52.506;13.462;2023-07-20T09:24:43;1.80;;;1.70;;
8462;SDS011;4268;52.506;13.462;2023-07-20T09:27:09;1.60;;;1.50;;
8462;SDS011;4268;52.506;13.462;2023-07-20T09:29:46;1.30;;;1.30;;
8462;SDS011;4268;52.506;13.462;2023-07-20T09:32:19;1.80;;;1.70;;
8462;SDS011;4268;52.506;13.462;2023-07-20T09:34:46;1.30;;;1.30;;
8462;SDS011;4268;52.506;13.462;2023-07-20T09:37:11;1.63;;;1.53;;
8462;SDS011;4268;52.506;13.462;2023-07-20T09:39:43;1.20;;;1.20;;
8462;SDS011;4268;52.506;13.462;2023-07-20T09:42:10;1.43;;;1.33;;
8462;SDS011;4268;52.506;13.462;2023-07-20T09:44:38;2.10;;;2.00;;
8462;SDS011;4268;52.506;13.462;2023-07-20T09:47:04;1.80;;;1.70;;
8462;SDS011;4268;52.506;13.462;2023-07-20T09:49:29;1.17;;;1.17;;
8462;SDS011;4268;52.506;13.462;2023-07-20T09:51:55;1.30;;;1.30;;
8462;SDS011;4268;52.506;13.462;2023-07-20T09:54:23;1.20;;;1.20;;
8462;SDS011;4268;52.506;13.462;2023-07-20T09:56:51;1.70;;;1.70;;
8462;SDS011;4268;52.506;13.462;2023-07-20T09:59:17;2.00;;;1.90;;
8462;SDS011;4268;52.506;13.462;2023-07-20T10:01:43;1.80;;;1.70;;
8462;SDS011;4268;52.506;13.462;2023-07-20T10:04:09;2.40;;;2.20;;
8462;SDS011;4268;52.506;13.462;2023-07-20T10:06:37;2.80;;;2.60;;
8462;SDS011;4268;52.506;13.462;2023-07-20T10:09:07;2.17;;;2.07;;
8462;SDS011;4268;52.506;13.462;2023-07-20T10:11:34;1.60;;;1.60;;
8462;SDS011;4268;52.506;13.462;2023-07-20T10:14:03;1.60;;;1.60;;
8462;SDS011;4268;52.506;13.462;2023-07-20T10:16:31;2.03;;;1.80;;
8462;SDS011;4268;52.506;13.462;2023-07-20T10:21:30;2.60;;;2.40;;
8462;SDS011;4268;52.506;13.462;2023-07-20T10:23:56;2.33;;;2.23;;
8462;SDS011;4268;52.506;13.462;2023-07-20T10:26:22;2.20;;;2.10;;
8462;SDS011;4268;52.506;13.462;2023-07-20T10:28:48;2.20;;;2.00;;
8462;SDS011;4268;52.506;13.462;2023-07-20T10:31:14;2.00;;;1.90;;
8462;SDS011;4268;52.506;13.462;2023-07-20T10:33:41;2.20;;;2.10;;
8462;SDS011;4268;52.506;13.462;2023-07-20T10:36:07;2.37;;;2.27;;
8462;SDS011;4268;52.506;13.462;2023-07-20T10:41:15;1.87;;;1.77;;
8462;SDS011;4268;52.506;13.462;2023-07-20T10:43:42;2.40;;;1.97;;
8462;SDS011;4268;52.506;13.462;2023-07-20T10:46:09;1.80;;;1.60;;
8462;SDS011;4268;52.506;13.462;2023-07-20T10:48:36;1.93;;;1.83;;
8462;SDS011;4268;52.506;13.462;2023-07-20T10:51:27;1.60;;;1.50;;
8462;SDS011;4268;52.506;13.462;2023-07-20T10:53:52;1.97;;;1.87;;
8462;SDS011;4268;52.506;13.462;2023-07-20T10:56:22;2.00;;;1.80;;
8462;SDS011;4268;52.506;13.462;2023-07-20T10:58:48;1.80;;;1.70;;
8462;SDS011;4268;52.506;13.462;2023-07-20T11:01:14;1.80;;;1.70;;
8462;SDS011;4268;52.506;13.462;2023-07-20T11:03:42;2.37;;;1.70;;
8462;SDS011;4268;52.506;13.462;2023-07-20T11:08:48;4.60;;;4.20;;
8462;SDS011;4268;52.506;13.462;2023-07-20T11:11:21;4.87;;;4.33;;
8462;SDS011;4268;52.506;13.462;2023-07-20T11:13:57;11.90;;;10.90;;
8462;SDS011;4268;52.506;13.462;2023-07-20T11:16:34;3.30;;;3.10;;
8462;SDS011;4268;52.506;13.462;2023-07-20T11:19:18;7.63;;;7.07;;
8462;SDS011;4268;52.506;13.462;2023-07-20T11:21:46;7.93;;;7.23;;
8462;SDS011;4268;52.506;13.462;2023-07-20T11:24:15;5.60;;;5.20;;
8462;SDS011;4268;52.506;13.462;2023-07-20T11:26:41;2.33;;;2.23;;
8462;SDS011;4268;52.506;13.462;2023-07-20T11:29:08;2.20;;;2.00;;
8462;SDS011;4268;52.506;13.462;2023-07-20T11:31:40;3.20;;;3.00;;
8462;SDS011;4268;52.506;13.462;2023-07-20T11:34:11;4.30;;;4.00;;
8462;SDS011;4268;52.506;13.462;2023-07-20T11:36:39;3.27;;;3.07;;
8462;SDS011;4268;52.506;13.462;2023-07-20T11:39:09;2.30;;;2.20;;
8462;SDS011;4268;52.506;13.462;2023-07-20T11:41:36;2.93;;;2.73;;
8462;SDS011;4268;52.506;13.462;2023-07-20T11:44:02;1.87;;;1.77;;
8462;SDS011;4268;52.506;13.462;2023-07-20T11:46:28;3.93;;;3.50;;
8462;SDS011;4268;52.506;13.462;2023-07-20T11:48:58;2.90;;;2.60;;
8462;SDS011;4268;52.506;13.462;2023-07-20T11:51:30;1.80;;;1.80;;
8462;SDS011;4268;52.506;13.462;2023-07-20T11:53:56;2.10;;;2.00;;
8462;SDS011;4268;52.506;13.462;2023-07-20T11:56:23;2.87;;;2.67;;
8462;SDS011;4268;52.506;13.462;2023-07-20T11:58:49;1.90;;;1.90;;
8462;SDS011;4268;52.506;13.462;2023-07-20T12:01:15;2.10;;;2.00;;
8462;SDS011;4268;52.506;13.462;2023-07-20T12:03:42;1.90;;;1.90;;
8462;SDS011;4268;52.506;13.462;2023-07-20T12:06:11;2.13;;;2.07;;
8462;SDS011;4268;52.506;13.462;2023-07-20T12:08:57;2.03;;;1.93;;
8462;SDS011;4268;52.506;13.462;2023-07-20T12:11:36;2.30;;;2.20;;
8462;SDS011;4268;52.506;13.462;2023-07-20T12:14:07;2.00;;;1.90;;
8462;SDS011;4268;52.506;13.462;2023-07-20T12:16:36;1.90;;;1.80;;
8462;SDS011;4268;52.506;13.462;2023-07-20T12:19:18;2.17;;;2.07;;
8462;SDS011;4268;52.506;13.462;2023-07-20T12:21:57;1.90;;;1.80;;
8462;SDS011;4268;52.506;13.462;2023-07-20T12:24:24;1.67;;;1.67;;
8462;SDS011;4268;52.506;13.462;2023-07-20T12:26:55;1.60;;;1.60;;
8462;SDS011;4268;52.506;13.462;2023-07-20T12:29:22;1.50;;;1.50;;
8462;SDS011;4268;52.506;13.462;2023-07-20T12:31:48;1.60;;;1.60;;
8462;SDS011;4268;52.506;13.462;2023-07-20T12:34:13;1.80;;;1.80;;
8462;SDS011;4268;52.506;13.462;2023-07-20T12:36:39;1.80;;;1.80;;
8462;SDS011;4268;52.506;13.462;2023-07-20T12:39:04;1.53;;;1.53;;
8462;SDS011;4268;52.506;13.462;2023-07-20T12:41:30;1.30;;;1.30;;
8462;SDS011;4268;52.506;13.462;2023-07-20T12:43:56;1.80;;;1.70;;
8462;SDS011;4268;52.506;13.462;2023-07-20T12:46:23;2.30;;;2.20;;
8462;SDS011;4268;52.506;13.462;2023-07-20T12:48:48;1.20;;;1.20;;
8462;SDS011;4268;52.506;13.462;2023-07-20T12:51:14;1.30;;;1.30;;
8462;SDS011;4268;52.506;13.462;2023-07-20T12:53:40;1.27;;;1.27;;
8462;SDS011;4268;52.506;13.462;2023-07-20T12:56:05;3.17;;;1.60;;
8462;SDS011;4268;52.506;13.462;2023-07-20T12:58:31;1.60;;;1.43;;
8462;SDS011;4268;52.506;13.462;2023-07-20T13:00:56;1.60;;;1.50;;
8462;SDS011;4268;52.506;13.462;2023-07-20T13:03:22;2.63;;;1.50;;
8462;SDS011;4268;52.506;13.462;2023-07-20T13:05:48;2.10;;;1.40;;
8462;SDS011;4268;52.506;13.462;2023-07-20T13:08:14;1.20;;;1.20;;
8462;SDS011;4268;52.506;13.462;2023-07-20T13:10:40;1.43;;;1.40;;
8462;SDS011;4268;52.506;13.462;2023-07-20T13:13:05;1.47;;;1.43;;
8462;SDS011;4268;52.506;13.462;2023-07-20T13:15:32;1.60;;;1.50;;
8462;SDS011;4268;52.506;13.462;2023-07-20T13:18:05;1.20;;;1.20;;
8462;SDS011;4268;52.506;13.462;2023-07-20T13:20:30;1.70;;;1.47;;
8462;SDS011;4268;52.506;13.462;2023-07-20T13:22:56;1.33;;;1.33;;
8462;SDS011;4268;52.506;13.462;2023-07-20T13:25:21;1.70;;;1.60;;
8462;SDS011;4268;52.506;13.462;2023-07-20T13:27:47;1.63;;;1.53;;
8462;SDS011;4268;52.506;13.462;2023-07-20T13:30:12;1.93;;;1.83;;
8462;SDS011;4268;52.506;13.462;2023-07-20T13:32:41;1.87;;;1.80;;
8462;SDS011;4268;52.506;13.462;2023-07-20T13:35:08;2.00;;;1.90;;
8462;SDS011;4268;52.506;13.462;2023-07-20T13:37:34;2.23;;;2.13;;
8462;SDS011;4268;52.506;13.462;2023-07-20T13:40:00;2.10;;;2.10;;
8462;SDS011;4268;52.506;13.462;2023-07-20T13:42:25;2.27;;;2.17;;
8462;SDS011;4268;52.506;13.462;2023-07-20T13:44:51;2.20;;;2.20;;
8462;SDS011;4268;52.506;13.462;2023-07-20T13:47:17;2.40;;;2.20;;
8462;SDS011;4268;52.506;13.462;2023-07-20T13:49:43;1.60;;;1.60;;
8462;SDS011;4268;52.506;13.462;2023-07-20T13:52:08;1.40;;;1.40;;
8462;SDS011;4268;52.506;13.462;2023-07-20T13:54:34;1.20;;;1.20;;
8462;SDS011;4268;52.506;13.462;2023-07-20T13:56:59;1.20;;;1.20;;
8462;SDS011;4268;52.506;13.462;2023-07-20T13:59:25;1.20;;;1.20;;
8462;SDS011;4268;52.506;13.462;2023-07-20T14:01:50;1.40;;;1.30;;
8462;SDS011;4268;52.506;13.462;2023-07-20T14:04:16;1.40;;;1.30;;
8462;SDS011;4268;52.506;13.462;2023-07-20T14:06:42;1.10;;;1.10;;
8462;SDS011;4268;52.506;13.462;2023-07-20T14:09:07;1.07;;;1.07;;
8462;SDS011;4268;52.506;13.462;2023-07-20T14:11:33;1.20;;;1.10;;
8462;SDS011;4268;52.506;13.462;2023-07-20T14:13:58;1.27;;;1.20;;
8462;SDS011;4268;52.506;13.462;2023-07-20T14:16:24;1.20;;;1.20;;
8462;SDS011;4268;52.506;13.462;2023-07-20T14:18:50;1.13;;;1.13;;
8462;SDS011;4268;52.506;13.462;2023-07-20T14:21:19;1.20;;;1.20;;
8462;SDS011;4268;52.506;13.462;2023-07-20T14:23:50;1.40;;;1.40;;
8462;SDS011;4268;52.506;13.462;2023-07-20T14:26:17;1.10;;;1.10;;
8462;SDS011;4268;52.506;13.462;2023-07-20T14:28:43;1.17;;;1.17;;
8462;SDS011;4268;52.506;13.462;2023-07-20T14:31:09;1.63;;;1.30;;
8462;SDS011;4268;52.506;13.462;2023-07-20T14:33:34;1.20;;;1.10;;
8462;SDS011;4268;52.506;13.462;2023-07-20T14:36:00;1.10;;;1.10;;
8462;SDS011;4268;52.506;13.462;2023-07-20T14:38:27;1.30;;;1.30;;
8462;SDS011;4268;52.506;13.462;2023-07-20T14:40:53;1.10;;;1.10;;
8462;SDS011;4268;52.506;13.462;2023-07-20T14:43:18;1.17;;;1.17;;
8462;SDS011;4268;52.506;13.462;2023-07-20T14:45:44;1.30;;;1.20;;
8462;SDS011;4268;52.506;13.462;2023-07-20T14:48:10;1.37;;;1.27;;
8462;SDS011;4268;52.506;13.462;2023-07-20T14:50:36;1.50;;;1.40;;
8462;SDS011;4268;52.506;13.462;2023-07-20T14:53:01;1.40;;;1.40;;
8462;SDS011;4268;52.506;13.462;2023-07-20T14:55:28;1.10;;;1.10;;
8462;SDS011;4268;52.506;13.462;2023-07-20T14:57:53;1.10;;;1.10;;
8462;SDS011;4268;52.506;13.462;2023-07-20T15:00:19;1.20;;;1.20;;
8462;SDS011;4268;52.506;13.462;2023-07-20T15:02:44;1.50;;;1.37;;
8462;SDS011;4268;52.506;13.462;2023-07-20T15:05:10;2.30;;;1.30;;
8462;SDS011;4268;52.506;13.462;2023-07-20T15:07:36;1.43;;;1.30;;
8462;SDS011;4268;52.506;13.462;2023-07-20T15:10:03;2.20;;;1.50;;
8462;SDS011;4268;52.506;13.462;2023-07-20T15:12:30;1.40;;;1.40;;
8462;SDS011;4268;52.506;13.462;2023-07-20T15:15:05;1.33;;;1.33;;